sensor_id;sensor_type;location;lat;lon;timestamp;P1;durP1;ratioP1;P2;durP2;ratioP2
77880;SDS011;67077;50.298;18.996;2023-02-28T00:01:58;31.10;;;11.80;;
77880;SDS011;67077;50.298;18.996;2023-02-28T00:04:32;32.50;;;12.00;;
77880;SDS011;67077;50.298;18.996;2023-02-28T00:07:02;27.60;;;11.00;;
77880;SDS011;67077;50.298;18.996;2023-02-28T00:09:49;33.20;;;11.50;;
77880;SDS011;67077;50.298;18.996;2023-02-28T00:12:19;29.90;;;11.30;;
77880;SDS011;67077;50.298;18.996;2023-02-28T00:14:50;26.40;;;10.50;;
77880;SDS011;67077;50.298;18.996;2023-02-28T00:17:28;29.40;;;10.70;;
77880;SDS011;67077;50.298;18.996;2023-02-28T00:20:03;30.30;;;11.90;;
77880;SDS011;67077;50.298;18.996;2023-02-28T00:22:41;30.60;;;11.90;;
77880;SDS011;67077;50.298;18.996;2023-02-28T00:25:11;29.40;;;11.00;;
77880;SDS011;67077;50.298;18.996;2023-02-28T00:27:58;27.40;;;10.80;;
77880;SDS011;67077;50.298;18.996;2023-02-28T00:31:04;22.00;;;9.70;;
77880;SDS011;67077;50.298;18.996;2023-02-28T00:33:49;25.90;;;10.20;;
77880;SDS011;67077;50.298;18.996;2023-02-28T00:36:38;26.50;;;10.70;;
77880;SDS011;67077;50.298;18.996;2023-02-28T00:39:43;24.10;;;10.80;;
77880;SDS011;67077;50.298;18.996;2023-02-28T00:42:14;30.50;;;11.80;;
77880;SDS011;67077;50.298;18.996;2023-02-28T00:44:50;25.40;;;10.40;;
77880;SDS011;67077;50.298;18.996;2023-02-28T00:47:20;27.60;;;10.50;;
77880;SDS011;67077;50.298;18.996;2023-02-28T00:49:54;29.80;;;11.60;;
77880;SDS011;67077;50.298;18.996;2023-02-28T00:52:24;32.70;;;12.20;;
77880;SDS011;67077;50.298;18.996;2023-02-28T01:42:11;26.80;;;11.10;;
77880;SDS011;67077;50.298;18.996;2023-02-28T01:45:00;27.20;;;11.90;;
77880;SDS011;67077;50.298;18.996;2023-02-28T01:47:45;31.70;;;12.80;;
77880;SDS011;67077;50.298;18.996;2023-02-28T01:50:30;23.80;;;10.10;;
77880;SDS011;67077;50.298;18.996;2023-02-28T02:02:29;21.30;;;9.70;;
77880;SDS011;67077;50.298;18.996;2023-02-28T02:05:05;21.60;;;9.30;;
77880;SDS011;67077;50.298;18.996;2023-02-28T02:08:06;18.40;;;8.20;;
77880;SDS011;67077;50.298;18.996;2023-02-28T02:22:36;23.70;;;11.30;;
77880;SDS011;67077;50.298;18.996;2023-02-28T02:45:25;24.40;;;11.80;;
77880;SDS011;67077;50.298;18.996;2023-02-28T02:49:02;21.80;;;10.20;;
77880;SDS011;67077;50.298;18.996;2023-02-28T02:52:42;26.30;;;12.30;;
77880;SDS011;67077;50.298;18.996;2023-02-28T03:04:57;25.10;;;11.40;;
77880;SDS011;67077;50.298;18.996;2023-02-28T03:10:59;27.90;;;12.30;;
77880;SDS011;67077;50.298;18.996;2023-02-28T03:21:06;28.80;;;11.50;;
77880;SDS011;67077;50.298;18.996;2023-02-28T03:38:23;28.70;;;12.20;;
77880;SDS011;67077;50.298;18.996;2023-02-28T03:41:57;24.40;;;11.00;;
77880;SDS011;67077;50.298;18.996;2023-02-28T03:44:49;25.80;;;11.00;;
77880;SDS011;67077;50.298;18.996;2023-02-28T03:48:29;28.40;;;11.90;;
77880;SDS011;67077;50.298;18.996;2023-02-28T03:51:15;28.30;;;11.90;;
77880;SDS011;67077;50.298;18.996;2023-02-28T03:54:01;26.30;;;11.90;;
77880;SDS011;67077;50.298;18.996;2023-02-28T04:03:00;26.50;;;11.60;;
77880;SDS011;67077;50.298;18.996;2023-02-28T04:08:31;26.50;;;10.70;;
77880;SDS011;67077;50.298;18.996;2023-02-28T04:11:14;26.50;;;11.70;;
77880;SDS011;67077;50.298;18.996;2023-02-28T04:13:58;28.00;;;12.20;;
77880;SDS011;67077;50.298;18.996;2023-02-28T04:25:02;26.00;;;11.50;;
77880;SDS011;67077;50.298;18.996;2023-02-28T04:40:07;34.10;;;14.40;;
77880;SDS011;67077;50.298;18.996;2023-02-28T04:42:41;30.90;;;14.70;;
77880;SDS011;67077;50.298;18.996;2023-02-28T04:47:58;30.30;;;12.80;;
77880;SDS011;67077;50.298;18.996;2023-02-28T04:50:32;36.50;;;15.70;;
77880;SDS011;67077;50.298;18.996;2023-02-28T04:53:32;43.40;;;17.40;;
77880;SDS011;67077;50.298;18.996;2023-02-28T04:59:49;35.50;;;13.60;;
77880;SDS011;67077;50.298;18.996;2023-02-28T05:02:50;37.90;;;16.00;;
77880;SDS011;67077;50.298;18.996;2023-02-28T05:08:34;29.20;;;12.80;;
77880;SDS011;67077;50.298;18.996;2023-02-28T05:11:29;27.20;;;12.80;;
77880;SDS011;67077;50.298;18.996;2023-02-28T05:14:13;36.10;;;14.80;;
77880;SDS011;67077;50.298;18.996;2023-02-28T05:16:45;32.10;;;13.80;;
77880;SDS011;67077;50.298;18.996;2023-02-28T05:19:13;29.90;;;13.30;;
77880;SDS011;67077;50.298;18.996;2023-02-28T05:21:49;33.10;;;14.40;;
77880;SDS011;67077;50.298;18.996;2023-02-28T05:24:23;38.10;;;14.90;;
77880;SDS011;67077;50.298;18.996;2023-02-28T05:26:55;29.20;;;13.30;;
77880;SDS011;67077;50.298;18.996;2023-02-28T05:29:27;29.00;;;12.80;;
77880;SDS011;67077;50.298;18.996;2023-02-28T05:31:57;31.70;;;14.60;;
77880;SDS011;67077;50.298;18.996;2023-02-28T05:34:28;32.00;;;14.30;;
77880;SDS011;67077;50.298;18.996;2023-02-28T05:37:20;34.00;;;15.40;;
77880;SDS011;67077;50.298;18.996;2023-02-28T05:40:28;56.20;;;22.40;;
77880;SDS011;67077;50.298;18.996;2023-02-28T05:43:55;66.60;;;26.50;;
77880;SDS011;67077;50.298;18.996;2023-02-28T05:46:42;53.60;;;21.20;;
77880;SDS011;67077;50.298;18.996;2023-02-28T05:49:13;55.50;;;23.70;;
77880;SDS011;67077;50.298;18.996;2023-02-28T05:51:47;47.80;;;19.50;;
77880;SDS011;67077;50.298;18.996;2023-02-28T05:54:19;40.00;;;17.50;;
77880;SDS011;67077;50.298;18.996;2023-02-28T05:56:59;46.50;;;18.80;;
77880;SDS011;67077;50.298;18.996;2023-02-28T05:59:32;42.90;;;17.10;;
77880;SDS011;67077;50.298;18.996;2023-02-28T06:02:00;41.50;;;18.00;;
77880;SDS011;67077;50.298;18.996;2023-02-28T06:04:27;42.80;;;17.40;;
77880;SDS011;67077;50.298;18.996;2023-02-28T06:06:53;40.30;;;16.40;;
77880;SDS011;67077;50.298;18.996;2023-02-28T06:09:20;41.50;;;16.70;;
77880;SDS011;67077;50.298;18.996;2023-02-28T06:11:47;40.60;;;16.50;;
77880;SDS011;67077;50.298;18.996;2023-02-28T06:14:15;40.00;;;16.10;;
77880;SDS011;67077;50.298;18.996;2023-02-28T06:16:44;36.30;;;16.00;;
77880;SDS011;67077;50.298;18.996;2023-02-28T06:19:12;39.30;;;16.20;;
77880;SDS011;67077;50.298;18.996;2023-02-28T06:21:43;43.50;;;17.90;;
77880;SDS011;67077;50.298;18.996;2023-02-28T06:24:10;39.50;;;16.60;;
77880;SDS011;67077;50.298;18.996;2023-02-28T06:26:37;46.80;;;19.50;;
77880;SDS011;67077;50.298;18.996;2023-02-28T06:29:04;45.50;;;20.00;;
77880;SDS011;67077;50.298;18.996;2023-02-28T06:34:31;39.70;;;14.80;;
77880;SDS011;67077;50.298;18.996;2023-02-28T06:37:04;39.60;;;16.90;;
77880;SDS011;67077;50.298;18.996;2023-02-28T06:43:20;39.40;;;15.40;;
77880;SDS011;67077;50.298;18.996;2023-02-28T06:55:23;39.10;;;16.10;;
77880;SDS011;67077;50.298;18.996;2023-02-28T06:57:52;40.40;;;17.30;;
77880;SDS011;67077;50.298;18.996;2023-02-28T07:00:24;38.10;;;17.10;;
77880;SDS011;67077;50.298;18.996;2023-02-28T07:03:04;41.00;;;16.00;;
77880;SDS011;67077;50.298;18.996;2023-02-28T07:05:36;40.20;;;17.30;;
77880;SDS011;67077;50.298;18.996;2023-02-28T07:08:05;39.30;;;16.60;;
77880;SDS011;67077;50.298;18.996;2023-02-28T07:10:34;37.60;;;15.60;;
77880;SDS011;67077;50.298;18.996;2023-02-28T07:13:04;38.80;;;15.80;;
77880;SDS011;67077;50.298;18.996;2023-02-28T07:15:38;43.80;;;18.70;;
77880;SDS011;67077;50.298;18.996;2023-02-28T07:30:49;39.80;;;17.70;;
77880;SDS011;67077;50.298;18.996;2023-02-28T07:33:29;35.40;;;16.90;;
77880;SDS011;67077;50.298;18.996;2023-02-28T07:36:00;44.20;;;19.00;;
77880;SDS011;67077;50.298;18.996;2023-02-28T07:38:33;39.00;;;17.10;;
77880;SDS011;67077;50.298;18.996;2023-02-28T07:41:04;40.50;;;17.50;;
77880;SDS011;67077;50.298;18.996;2023-02-28T07:43:32;41.00;;;18.90;;
77880;SDS011;67077;50.298;18.996;2023-02-28T07:46:03;44.70;;;19.70;;
77880;SDS011;67077;50.298;18.996;2023-02-28T07:48:32;46.00;;;19.20;;
77880;SDS011;67077;50.298;18.996;2023-02-28T07:50:59;42.40;;;17.80;;
77880;SDS011;67077;50.298;18.996;2023-02-28T07:53:28;44.40;;;17.90;;
77880;SDS011;67077;50.298;18.996;2023-02-28T07:56:04;40.10;;;18.10;;
77880;SDS011;67077;50.298;18.996;2023-02-28T07:58:32;34.00;;;14.40;;
77880;SDS011;67077;50.298;18.996;2023-02-28T08:01:17;45.60;;;19.50;;
77880;SDS011;67077;50.298;18.996;2023-02-28T08:03:45;38.30;;;17.30;;
77880;SDS011;67077;50.298;18.996;2023-02-28T08:06:22;37.20;;;15.40;;
77880;SDS011;67077;50.298;18.996;2023-02-28T08:09:12;31.70;;;13.70;;
77880;SDS011;67077;50.298;18.996;2023-02-28T08:11:45;29.40;;;13.10;;
77880;SDS011;67077;50.298;18.996;2023-02-28T08:14:12;29.60;;;13.70;;
77880;SDS011;67077;50.298;18.996;2023-02-28T08:16:40;27.90;;;13.00;;
77880;SDS011;67077;50.298;18.996;2023-02-28T08:19:13;26.40;;;12.90;;
77880;SDS011;67077;50.298;18.996;2023-02-28T08:21:52;24.50;;;11.70;;
77880;SDS011;67077;50.298;18.996;2023-02-28T08:24:47;22.20;;;10.90;;
77880;SDS011;67077;50.298;18.996;2023-02-28T08:27:14;30.40;;;12.00;;
77880;SDS011;67077;50.298;18.996;2023-02-28T08:29:52;25.50;;;12.10;;
77880;SDS011;67077;50.298;18.996;2023-02-28T08:32:18;29.60;;;12.80;;
77880;SDS011;67077;50.298;18.996;2023-02-28T08:34:46;22.00;;;10.10;;
77880;SDS011;67077;50.298;18.996;2023-02-28T08:37:14;21.40;;;11.10;;
77880;SDS011;67077;50.298;18.996;2023-02-28T08:39:46;20.10;;;10.80;;
77880;SDS011;67077;50.298;18.996;2023-02-28T08:42:15;23.80;;;11.20;;
77880;SDS011;67077;50.298;18.996;2023-02-28T08:44:46;22.90;;;10.70;;
77880;SDS011;67077;50.298;18.996;2023-02-28T08:47:21;21.50;;;11.10;;
77880;SDS011;67077;50.298;18.996;2023-02-28T08:49:49;18.40;;;10.40;;
77880;SDS011;67077;50.298;18.996;2023-02-28T08:52:26;25.40;;;12.10;;
77880;SDS011;67077;50.298;18.996;2023-02-28T08:54:54;22.30;;;11.70;;
77880;SDS011;67077;50.298;18.996;2023-02-28T08:57:27;21.50;;;10.90;;
77880;SDS011;67077;50.298;18.996;2023-02-28T08:59:56;23.80;;;11.40;;
77880;SDS011;67077;50.298;18.996;2023-02-28T09:02:24;27.10;;;12.00;;
77880;SDS011;67077;50.298;18.996;2023-02-28T09:04:57;23.60;;;11.20;;
77880;SDS011;67077;50.298;18.996;2023-02-28T09:07:36;27.90;;;12.70;;
77880;SDS011;67077;50.298;18.996;2023-02-28T09:10:15;27.90;;;13.70;;
77880;SDS011;67077;50.298;18.996;2023-02-28T09:12:44;28.00;;;13.30;;
77880;SDS011;67077;50.298;18.996;2023-02-28T09:15:14;23.60;;;11.90;;
77880;SDS011;67077;50.298;18.996;2023-02-28T09:17:41;26.20;;;12.70;;
77880;SDS011;67077;50.298;18.996;2023-02-28T09:20:16;26.90;;;12.50;;
77880;SDS011;67077;50.298;18.996;2023-02-28T09:22:43;27.10;;;13.10;;
77880;SDS011;67077;50.298;18.996;2023-02-28T09:25:10;29.10;;;13.00;;
77880;SDS011;67077;50.298;18.996;2023-02-28T09:27:39;26.80;;;12.60;;
77880;SDS011;67077;50.298;18.996;2023-02-28T09:30:07;26.80;;;13.20;;
77880;SDS011;67077;50.298;18.996;2023-02-28T09:32:42;30.80;;;14.20;;
77880;SDS011;67077;50.298;18.996;2023-02-28T09:35:09;25.40;;;12.70;;
77880;SDS011;67077;50.298;18.996;2023-02-28T09:37:43;29.00;;;13.70;;
77880;SDS011;67077;50.298;18.996;2023-02-28T09:40:10;27.90;;;13.00;;
77880;SDS011;67077;50.298;18.996;2023-02-28T09:42:39;24.90;;;13.20;;
77880;SDS011;67077;50.298;18.996;2023-02-28T09:45:16;25.20;;;11.90;;
77880;SDS011;67077;50.298;18.996;2023-02-28T09:48:23;26.30;;;12.70;;
77880;SDS011;67077;50.298;18.996;2023-02-28T09:51:57;24.20;;;12.30;;
77880;SDS011;67077;50.298;18.996;2023-02-28T10:20:48;30.30;;;13.50;;
77880;SDS011;67077;50.298;18.996;2023-02-28T10:23:21;29.30;;;13.60;;
77880;SDS011;67077;50.298;18.996;2023-02-28T10:26:00;29.70;;;14.20;;
77880;SDS011;67077;50.298;18.996;2023-02-28T10:28:39;28.50;;;14.00;;
77880;SDS011;67077;50.298;18.996;2023-02-28T10:31:08;27.30;;;13.80;;
77880;SDS011;67077;50.298;18.996;2023-02-28T10:33:43;28.20;;;13.00;;
77880;SDS011;67077;50.298;18.996;2023-02-28T10:36:18;27.90;;;14.00;;
77880;SDS011;67077;50.298;18.996;2023-02-28T10:38:48;27.30;;;13.90;;
77880;SDS011;67077;50.298;18.996;2023-02-28T10:44:22;26.50;;;14.00;;
77880;SDS011;67077;50.298;18.996;2023-02-28T10:47:21;30.00;;;14.40;;
77880;SDS011;67077;50.298;18.996;2023-02-28T10:49:48;28.50;;;14.40;;
77880;SDS011;67077;50.298;18.996;2023-02-28T10:55:35;28.50;;;14.50;;
77880;SDS011;67077;50.298;18.996;2023-02-28T10:58:03;31.90;;;15.80;;
77880;SDS011;67077;50.298;18.996;2023-02-28T11:00:52;30.10;;;16.00;;
77880;SDS011;67077;50.298;18.996;2023-02-28T11:03:32;30.20;;;15.30;;
77880;SDS011;67077;50.298;18.996;2023-02-28T11:06:12;31.80;;;15.30;;
77880;SDS011;67077;50.298;18.996;2023-02-28T11:08:55;35.40;;;16.50;;
77880;SDS011;67077;50.298;18.996;2023-02-28T11:18:20;32.10;;;15.50;;
77880;SDS011;67077;50.298;18.996;2023-02-28T11:20:57;35.30;;;15.80;;
77880;SDS011;67077;50.298;18.996;2023-02-28T11:23:30;32.70;;;16.30;;
77880;SDS011;67077;50.298;18.996;2023-02-28T11:26:01;34.70;;;17.10;;
77880;SDS011;67077;50.298;18.996;2023-02-28T11:28:40;33.30;;;16.40;;
77880;SDS011;67077;50.298;18.996;2023-02-28T11:33:43;30.80;;;15.70;;
77880;SDS011;67077;50.298;18.996;2023-02-28T11:36:13;31.70;;;15.50;;
77880;SDS011;67077;50.298;18.996;2023-02-28T11:38:45;38.60;;;18.70;;
77880;SDS011;67077;50.298;18.996;2023-02-28T11:55:45;33.70;;;16.90;;
77880;SDS011;67077;50.298;18.996;2023-02-28T11:58:49;27.80;;;14.30;;
77880;SDS011;67077;50.298;18.996;2023-02-28T12:13:21;37.60;;;16.50;;
77880;SDS011;67077;50.298;18.996;2023-02-28T12:27:41;31.90;;;15.80;;
77880;SDS011;67077;50.298;18.996;2023-02-28T12:30:33;34.50;;;17.90;;
77880;SDS011;67077;50.298;18.996;2023-02-28T12:33:11;33.60;;;17.40;;
77880;SDS011;67077;50.298;18.996;2023-02-28T12:40:51;31.90;;;17.10;;
77880;SDS011;67077;50.298;18.996;2023-02-28T12:43:27;37.20;;;17.80;;
77880;SDS011;67077;50.298;18.996;2023-02-28T12:46:02;36.60;;;18.10;;
77880;SDS011;67077;50.298;18.996;2023-02-28T12:48:38;35.60;;;18.30;;
77880;SDS011;67077;50.298;18.996;2023-02-28T12:51:12;31.40;;;16.10;;
77880;SDS011;67077;50.298;18.996;2023-02-28T12:53:47;32.40;;;16.10;;
77880;SDS011;67077;50.298;18.996;2023-02-28T13:02:00;31.30;;;15.80;;
77880;SDS011;67077;50.298;18.996;2023-02-28T13:10:16;32.70;;;16.90;;
77880;SDS011;67077;50.298;18.996;2023-02-28T13:12:52;35.70;;;16.50;;
77880;SDS011;67077;50.298;18.996;2023-02-28T13:15:36;32.70;;;16.80;;
77880;SDS011;67077;50.298;18.996;2023-02-28T13:18:20;28.80;;;14.50;;
77880;SDS011;67077;50.298;18.996;2023-02-28T13:20:57;30.40;;;14.90;;
77880;SDS011;67077;50.298;18.996;2023-02-28T13:26:22;29.10;;;15.00;;
77880;SDS011;67077;50.298;18.996;2023-02-28T13:34:35;30.50;;;14.40;;
77880;SDS011;67077;50.298;18.996;2023-02-28T13:40:39;30.40;;;15.40;;
77880;SDS011;67077;50.298;18.996;2023-02-28T13:43:07;26.60;;;14.40;;
77880;SDS011;67077;50.298;18.996;2023-02-28T13:50:40;35.10;;;17.30;;
77880;SDS011;67077;50.298;18.996;2023-02-28T14:09:06;38.50;;;17.50;;
77880;SDS011;67077;50.298;18.996;2023-02-28T14:11:49;41.90;;;18.50;;
77880;SDS011;67077;50.298;18.996;2023-02-28T14:17:08;36.70;;;16.60;;
77880;SDS011;67077;50.298;18.996;2023-02-28T14:19:40;42.80;;;19.50;;
77880;SDS011;67077;50.298;18.996;2023-02-28T14:25:23;43.80;;;19.30;;
77880;SDS011;67077;50.298;18.996;2023-02-28T14:31:01;41.70;;;20.90;;
77880;SDS011;67077;50.298;18.996;2023-02-28T14:33:41;38.50;;;18.00;;
77880;SDS011;67077;50.298;18.996;2023-02-28T14:36:23;41.20;;;19.10;;
77880;SDS011;67077;50.298;18.996;2023-02-28T14:41:53;40.30;;;18.50;;
77880;SDS011;67077;50.298;18.996;2023-02-28T14:44:33;35.90;;;18.30;;
77880;SDS011;67077;50.298;18.996;2023-02-28T14:47:11;37.40;;;18.10;;
77880;SDS011;67077;50.298;18.996;2023-02-28T15:01:36;29.80;;;16.50;;
77880;SDS011;67077;50.298;18.996;2023-02-28T15:08:15;28.00;;;14.80;;
77880;SDS011;67077;50.298;18.996;2023-02-28T15:11:01;29.70;;;15.20;;
77880;SDS011;67077;50.298;18.996;2023-02-28T15:13:50;35.60;;;17.50;;
77880;SDS011;67077;50.298;18.996;2023-02-28T15:22:27;36.70;;;17.60;;
77880;SDS011;67077;50.298;18.996;2023-02-28T15:25:09;38.90;;;19.10;;
77880;SDS011;67077;50.298;18.996;2023-02-28T15:27:51;31.80;;;16.80;;
77880;SDS011;67077;50.298;18.996;2023-02-28T15:30:31;33.80;;;16.30;;
77880;SDS011;67077;50.298;18.996;2023-02-28T15:33:05;29.80;;;14.50;;
77880;SDS011;67077;50.298;18.996;2023-02-28T15:35:32;35.10;;;17.50;;
77880;SDS011;67077;50.298;18.996;2023-02-28T15:38:01;39.50;;;17.90;;
77880;SDS011;67077;50.298;18.996;2023-02-28T15:40:53;32.20;;;14.60;;
77880;SDS011;67077;50.298;18.996;2023-02-28T15:46:09;35.10;;;16.70;;
77880;SDS011;67077;50.298;18.996;2023-02-28T15:53:59;38.70;;;17.20;;
77880;SDS011;67077;50.298;18.996;2023-02-28T15:56:38;32.40;;;15.40;;
77880;SDS011;67077;50.298;18.996;2023-02-28T15:59:18;34.10;;;16.00;;
77880;SDS011;67077;50.298;18.996;2023-02-28T16:02:01;35.10;;;16.30;;
77880;SDS011;67077;50.298;18.996;2023-02-28T16:04:29;36.40;;;17.00;;
77880;SDS011;67077;50.298;18.996;2023-02-28T16:09:45;39.30;;;17.60;;
77880;SDS011;67077;50.298;18.996;2023-02-28T16:12:27;42.60;;;18.40;;
77880;SDS011;67077;50.298;18.996;2023-02-28T16:15:01;38.60;;;17.80;;
77880;SDS011;67077;50.298;18.996;2023-02-28T16:17:37;36.20;;;17.30;;
77880;SDS011;67077;50.298;18.996;2023-02-28T16:20:14;37.40;;;17.50;;
77880;SDS011;67077;50.298;18.996;2023-02-28T16:22:46;34.90;;;16.30;;
77880;SDS011;67077;50.298;18.996;2023-02-28T16:25:14;38.50;;;17.20;;
77880;SDS011;67077;50.298;18.996;2023-02-28T16:27:45;37.50;;;17.90;;
77880;SDS011;67077;50.298;18.996;2023-02-28T16:30:25;27.20;;;12.00;;
77880;SDS011;67077;50.298;18.996;2023-02-28T16:32:55;37.80;;;16.80;;
77880;SDS011;67077;50.298;18.996;2023-02-28T16:35:23;37.70;;;17.30;;
77880;SDS011;67077;50.298;18.996;2023-02-28T16:37:50;40.30;;;17.80;;
77880;SDS011;67077;50.298;18.996;2023-02-28T16:40:20;43.10;;;18.30;;
77880;SDS011;67077;50.298;18.996;2023-02-28T16:42:49;40.60;;;19.90;;
77880;SDS011;67077;50.298;18.996;2023-02-28T16:45:23;49.10;;;21.30;;
77880;SDS011;67077;50.298;18.996;2023-02-28T16:47:54;46.90;;;21.40;;
77880;SDS011;67077;50.298;18.996;2023-02-28T16:50:23;55.80;;;24.30;;
77880;SDS011;67077;50.298;18.996;2023-02-28T16:52:53;59.90;;;25.80;;
77880;SDS011;67077;50.298;18.996;2023-02-28T16:55:22;61.80;;;25.10;;
77880;SDS011;67077;50.298;18.996;2023-02-28T16:57:51;56.60;;;27.20;;
77880;SDS011;67077;50.298;18.996;2023-02-28T17:00:24;63.40;;;28.20;;
77880;SDS011;67077;50.298;18.996;2023-02-28T17:02:53;64.00;;;27.70;;
77880;SDS011;67077;50.298;18.996;2023-02-28T17:05:20;74.20;;;31.80;;
77880;SDS011;67077;50.298;18.996;2023-02-28T17:07:49;69.70;;;29.70;;
77880;SDS011;67077;50.298;18.996;2023-02-28T17:10:20;60.40;;;27.60;;
77880;SDS011;67077;50.298;18.996;2023-02-28T17:12:49;64.70;;;28.60;;
77880;SDS011;67077;50.298;18.996;2023-02-28T17:15:17;56.90;;;26.60;;
77880;SDS011;67077;50.298;18.996;2023-02-28T17:17:46;55.50;;;25.40;;
77880;SDS011;67077;50.298;18.996;2023-02-28T17:20:16;56.90;;;25.90;;
77880;SDS011;67077;50.298;18.996;2023-02-28T17:22:51;64.90;;;29.60;;
77880;SDS011;67077;50.298;18.996;2023-02-28T17:25:20;64.10;;;28.50;;
77880;SDS011;67077;50.298;18.996;2023-02-28T17:27:52;61.00;;;27.60;;
77880;SDS011;67077;50.298;18.996;2023-02-28T17:30:23;59.40;;;26.60;;
77880;SDS011;67077;50.298;18.996;2023-02-28T17:32:54;66.30;;;28.10;;
77880;SDS011;67077;50.298;18.996;2023-02-28T17:35:22;63.60;;;27.40;;
77880;SDS011;67077;50.298;18.996;2023-02-28T17:37:50;59.00;;;25.90;;
77880;SDS011;67077;50.298;18.996;2023-02-28T17:40:21;55.90;;;25.30;;
77880;SDS011;67077;50.298;18.996;2023-02-28T17:42:50;33.80;;;15.70;;
77880;SDS011;67077;50.298;18.996;2023-02-28T17:45:18;48.40;;;20.90;;
77880;SDS011;67077;50.298;18.996;2023-02-28T17:47:47;54.10;;;21.80;;
77880;SDS011;67077;50.298;18.996;2023-02-28T17:50:18;49.80;;;21.60;;
77880;SDS011;67077;50.298;18.996;2023-02-28T17:52:47;53.40;;;22.40;;
77880;SDS011;67077;50.298;18.996;2023-02-28T17:55:18;54.10;;;24.10;;
77880;SDS011;67077;50.298;18.996;2023-02-28T17:57:47;55.00;;;24.50;;
77880;SDS011;67077;50.298;18.996;2023-02-28T18:00:15;55.40;;;25.70;;
77880;SDS011;67077;50.298;18.996;2023-02-28T18:02:51;87.80;;;37.60;;
77880;SDS011;67077;50.298;18.996;2023-02-28T18:05:18;85.50;;;37.40;;
77880;SDS011;67077;50.298;18.996;2023-02-28T18:07:45;78.50;;;34.00;;
77880;SDS011;67077;50.298;18.996;2023-02-28T18:10:15;69.70;;;31.60;;
77880;SDS011;67077;50.298;18.996;2023-02-28T18:12:46;71.00;;;30.50;;
77880;SDS011;67077;50.298;18.996;2023-02-28T18:15:15;65.40;;;29.10;;
77880;SDS011;67077;50.298;18.996;2023-02-28T18:18:02;61.20;;;27.80;;
77880;SDS011;67077;50.298;18.996;2023-02-28T18:20:33;61.90;;;28.20;;
77880;SDS011;67077;50.298;18.996;2023-02-28T18:23:05;61.20;;;26.20;;
77880;SDS011;67077;50.298;18.996;2023-02-28T18:28:26;52.60;;;24.50;;
77880;SDS011;67077;50.298;18.996;2023-02-28T18:31:18;59.10;;;25.70;;
77880;SDS011;67077;50.298;18.996;2023-02-28T18:33:51;55.70;;;24.70;;
77880;SDS011;67077;50.298;18.996;2023-02-28T18:36:20;59.30;;;26.30;;
77880;SDS011;67077;50.298;18.996;2023-02-28T18:39:15;61.70;;;26.30;;
77880;SDS011;67077;50.298;18.996;2023-02-28T18:44:41;66.00;;;27.80;;
77880;SDS011;67077;50.298;18.996;2023-02-28T18:47:15;73.60;;;28.40;;
77880;SDS011;67077;50.298;18.996;2023-02-28T18:49:53;66.80;;;30.50;;
77880;SDS011;67077;50.298;18.996;2023-02-28T18:52:21;75.00;;;32.60;;
77880;SDS011;67077;50.298;18.996;2023-02-28T18:55:05;88.40;;;36.30;;
77880;SDS011;67077;50.298;18.996;2023-02-28T18:58:16;93.80;;;37.30;;
77880;SDS011;67077;50.298;18.996;2023-02-28T19:00:50;89.80;;;38.60;;
77880;SDS011;67077;50.298;18.996;2023-02-28T19:06:32;90.40;;;40.40;;
77880;SDS011;67077;50.298;18.996;2023-02-28T19:09:52;89.50;;;39.00;;
77880;SDS011;67077;50.298;18.996;2023-02-28T19:12:19;86.20;;;38.00;;
77880;SDS011;67077;50.298;18.996;2023-02-28T19:14:46;97.40;;;41.40;;
77880;SDS011;67077;50.298;18.996;2023-02-28T19:17:13;99.70;;;43.60;;
77880;SDS011;67077;50.298;18.996;2023-02-28T19:19:41;109.90;;;48.80;;
77880;SDS011;67077;50.298;18.996;2023-02-28T19:25:03;120.40;;;51.80;;
77880;SDS011;67077;50.298;18.996;2023-02-28T19:27:31;136.00;;;55.60;;
77880;SDS011;67077;50.298;18.996;2023-02-28T19:30:01;147.90;;;61.00;;
77880;SDS011;67077;50.298;18.996;2023-02-28T19:32:30;165.00;;;65.40;;
77880;SDS011;67077;50.298;18.996;2023-02-28T19:34:57;164.30;;;67.20;;
77880;SDS011;67077;50.298;18.996;2023-02-28T19:37:26;164.10;;;67.00;;
77880;SDS011;67077;50.298;18.996;2023-02-28T19:39:53;162.20;;;67.30;;
77880;SDS011;67077;50.298;18.996;2023-02-28T19:42:22;178.40;;;70.80;;
77880;SDS011;67077;50.298;18.996;2023-02-28T19:45:00;179.40;;;75.70;;
77880;SDS011;67077;50.298;18.996;2023-02-28T19:47:34;164.50;;;67.80;;
77880;SDS011;67077;50.298;18.996;2023-02-28T19:50:03;172.80;;;70.80;;
77880;SDS011;67077;50.298;18.996;2023-02-28T19:52:35;173.70;;;72.20;;
77880;SDS011;67077;50.298;18.996;2023-02-28T19:55:03;169.20;;;70.20;;
77880;SDS011;67077;50.298;18.996;2023-02-28T19:57:31;182.10;;;71.40;;
77880;SDS011;67077;50.298;18.996;2023-02-28T19:59:59;193.20;;;79.90;;
77880;SDS011;67077;50.298;18.996;2023-02-28T20:02:28;205.30;;;80.40;;
77880;SDS011;67077;50.298;18.996;2023-02-28T20:04:56;186.10;;;74.30;;
77880;SDS011;67077;50.298;18.996;2023-02-28T20:07:25;170.60;;;65.80;;
77880;SDS011;67077;50.298;18.996;2023-02-28T20:09:52;196.60;;;75.90;;
77880;SDS011;67077;50.298;18.996;2023-02-28T20:12:18;209.80;;;81.20;;
77880;SDS011;67077;50.298;18.996;2023-02-28T20:14:51;246.80;;;90.10;;
77880;SDS011;67077;50.298;18.996;2023-02-28T20:17:21;195.60;;;76.10;;
77880;SDS011;67077;50.298;18.996;2023-02-28T20:19:48;217.50;;;84.80;;
77880;SDS011;67077;50.298;18.996;2023-02-28T20:22:15;251.20;;;98.10;;
77880;SDS011;67077;50.298;18.996;2023-02-28T20:24:42;238.60;;;95.00;;
77880;SDS011;67077;50.298;18.996;2023-02-28T20:27:09;213.40;;;82.70;;
77880;SDS011;67077;50.298;18.996;2023-02-28T20:29:35;201.20;;;80.50;;
77880;SDS011;67077;50.298;18.996;2023-02-28T20:32:02;200.50;;;80.10;;
77880;SDS011;67077;50.298;18.996;2023-02-28T20:34:29;207.20;;;81.30;;
77880;SDS011;67077;50.298;18.996;2023-02-28T20:36:56;222.20;;;85.90;;
77880;SDS011;67077;50.298;18.996;2023-02-28T20:39:25;202.70;;;76.10;;
77880;SDS011;67077;50.298;18.996;2023-02-28T20:41:51;185.10;;;71.70;;
77880;SDS011;67077;50.298;18.996;2023-02-28T20:44:18;188.10;;;72.10;;
77880;SDS011;67077;50.298;18.996;2023-02-28T20:46:46;192.80;;;73.80;;
77880;SDS011;67077;50.298;18.996;2023-02-28T20:49:16;184.00;;;71.90;;
77880;SDS011;67077;50.298;18.996;2023-02-28T20:51:44;182.80;;;70.40;;
77880;SDS011;67077;50.298;18.996;2023-02-28T20:54:12;173.70;;;66.30;;
77880;SDS011;67077;50.298;18.996;2023-02-28T20:59:08;163.30;;;64.00;;
77880;SDS011;67077;50.298;18.996;2023-02-28T21:01:47;183.60;;;71.50;;
77880;SDS011;67077;50.298;18.996;2023-02-28T21:04:21;184.00;;;72.70;;
77880;SDS011;67077;50.298;18.996;2023-02-28T21:06:52;180.40;;;69.70;;
77880;SDS011;67077;50.298;18.996;2023-02-28T21:12:16;183.80;;;69.20;;
77880;SDS011;67077;50.298;18.996;2023-02-28T21:14:46;181.90;;;69.60;;
77880;SDS011;67077;50.298;18.996;2023-02-28T21:17:13;195.40;;;76.30;;
77880;SDS011;67077;50.298;18.996;2023-02-28T21:19:40;191.80;;;77.20;;